Timeline UpdatesTrip UpdatesNews PostsPvt PostsTravel TipsAdmin PostsConv PostsFollowed PostsChat RequestsBlog PostsPNR Posts

Disclaimer
Search
 
 
Fri Sep 19, 2014 21:22:38 ISTHomeTrainsΣChainsAtlasPNRForumGalleryNewsFAQTripsMembersLoginFeedback
No Recent News for this Train
Other Trains in the News **new
Latest...
...
Sun Aug 10, 2014 (10:19PM)
⇐ Return Journey: Train# 57135

57136/Kazipet-Ajni Passenger (UnReserved)

Time-Table HAS CHANGED.
Sep 04 (4:17AM)
Change Departure Station:
Change Arrival Station:
Post a Train Travel TipPost a Train Travel Tip **new
Post a Comment/Question/Picture/VideoPost a Comment/Question/Picture/Video
Pantry/Catering
✕ NO Pantry Car
✕ NO Catering
RSA - Rake Sharing
Rake/Coach Composition
Loco
AJNI/KZJ WAG 7
News    PNR    Forum    Time-Table    Availability    Fare Chart    Map    Arr/Dep History    Trips    Gallery    ΣChains    X/O    Timeline    
Travel Time: 7h 44m    28 halts    Distance: 272 km    Avg Speed: 35 km/hr
Type: Passenger
Zone: SCR/South Central
Departs @ 21:15
Platform# 3
SMTWTFS
Kazipet Junction/KZJ 
Arrives @ 04:59 +1 night
Platform# ???
SMTWTFS
Bhandak/BUX 

28 halts. 38 intermediate Stations between Kazipet Junction and Bhandak

Show ALL intermediate Stations  Show Old Time-Table

#CodeStation NameX/OArrivesAvgDepartsAvgHaltPFDay#KmSpeedElevZoneAddress
1KZJKazipet Junction (3)»  -21:15-310.051292mSCRWarangal Dist., Telangana
2HSPHasanparthi Road (3)  21:29-21:30-1m1111.979262mSCRWarangal Dist., Telangana
3OPLUppal (2)X  21:39-21:40-1m2123.779251mSCRKarimnagar Dist., Telangana
4JMKTJamikunta (2)X  21:49-21:50-1m1135.697236mSCRKarimnagar Dist., Telangana
5BGSFBisugir Sharif (2)X  21:54-21:55-1m2142.170227mSCRKarimnagar Dist., Telangana
6PTKPPotkapalli (2)X  22:04-22:05-1m--152.662219mSCRKarimnagar Dist., Telangana
7OEAOdela (2)X  22:09-22:10-1m--156.731231mSCRKarimnagar Dist., Telangana
8KOLRKolanoor (2)  22:19-22:20-1m--161.3-223mSCRKarimnagar Dist., Telangana
9KYOPKottapally  22:22-22:25-3m--166.557212mSCRKottapalli. Karimnagar Dist., Telangana
10PDPLPeddapalli Junction (2)  22:34-22:35-1m1175.152228mSCRKarimnagar Dist., Telangana
11RGPMRaghavapuram (2)  22:44-22:45-1m--182.842216mSCRKarimnagar Dist., Telangana
12RDMRamagundam (3)  22:59-23:00-1m1192.631170mSCRKarimnagar Dist. Ph : 08728 - 255237, Telangana
13PPZPeddampet (2)  23:09-23:10-1m2197.360155mSCRKarimnagar Dist., Telangana
14MCIManchiryal (3)X  23:19-23:20-1m11106.344159mSCRAdilabad Dist., Telangana
15RVKHRavindrakhani (2)  23:29-23:30-1m21112.925169mSCRAdilabad Dist., Telangana
16MMZMandamari (4)  23:39-23:40-1m11116.724176mSCRAdilabad Dist., Telangana
17BPABellampalli (3)X  00:04-00:05-1m12126.269205mSCRTel:.08735 223298, Telangana
18RECHRechni Road (2)X  00:14-00:15-1m22136.592250mSCRAdilabad Dist., Telangana
19ASAFAsifabad Road (2)  00:24-00:25-1m12150.434210mSCRAdilabad Dist., Telangana
20SKZRSirpur Kaghaznagar (3)  00:50-00:55-5m12164.745181mSCRAdilabad Dist., Telangana
21SRURSirpur Town (2)  01:19-01:20-1m22182.676187mSCRAdilabad Dist., Telangana
22MKDIMakudi (2)  01:29-01:30-1m22194.086179mSCRMakudi, Maharashtra
23WIRRWirurX  01:39-01:40-1m--2206.930182mSCRChandrapur, Maharashtra
24VHGNWihirgaon (2)X  01:59-02:00-1m22216.318193mSCRPIN - 442905, Maharashtra
25MAGHManikgarh (2)X  02:29-02:30-1m12224.98184mSCRRajura Taluk, Maharashtra
26BPQBalharshah Junction (5)X  03:40-04:10 04:00-30 20m--2234.437188mCRBallarpur. Ph : 07172 - 240341, Maharashtra
27BUPHBabupeth (2)  04:15-04:16-1m--2243.738196mCRChandrapur, Maharashtra
28CDChandrapur Maharashtra (3)  04:23-04:24-1m--2248.238194mCRChandrapur 442401, Maharashtra
29TAETadaliXO  04:47-04:48-1m--2262.952207mCRTadali, Maharashtra
30BUXBhandak (5)•  04:59-05:00-1m--2272.565207mCRChandrapur, Maharashtra
31MJRIMajri Junction (3)O  05:09-05:10-1m--2282.253198mCRDist. Chandrapur, Maharashtra
32WRRWarora (2)  05:24-05:25-1m--2294.670214mCRWarora, Maharashtra
33CKNIChikni Road (2)  05:34-05:35-1m--2305.150211mCRChandrapur, Maharashtra
34HGTHinganghat (3)X  06:09-06:10-1m--2333.752228mCRHinganghat, Maharashtra
35WGWagholi (2)XO  06:19-06:20-1m--2341.556238mCRWagholi, Maharashtra
36SNNSonegaon (2)XO  06:29-06:30-1m--2349.943262mCRWardha, Maharashtra
37BPKBhugaon (3)X  06:39-06:40-1m--2356.447267mCRWardha, Maharashtra
38CHJCChitoda  06:49-06:50-1m--2363.524265mCRChitoda, Maharashtra
39SEGMSewagram Junction (5)  06:58-07:00-2m--2366.869279mCRWardha, Maharashtra
40VADRWarudX  07:03-07:07-4m--2370.267261mCRSewagram, Maharashtra
41SLORSeloo RoadX  07:14-07:15-1m--2378.143256mCRMSH3, Maharashtra
42TGPTuljapur (2)O  07:29-07:30-1m--2388.120259mCRTuljapur, Maharashtra
43SNISindi (2)X  07:54-07:55-1m--2396.177258mCRWardha, Maharashtra
44BOKBorkhedi  08:04-08:05-1m--2407.634268mCRWardha, Maharashtra
45BTBRButi Bori (4)  08:19-08:20-1m--2415.458269mCRButi Bori, Maharashtra
46GMGGumgaon (2)X  08:29-08:30-1m--2424.144302mCRNagpur, Maharashtra
47KRIKhapri (2)  08:39-08:40-1m--2430.73312mCRNagpur, Maharashtra
48AJNIAjni (3)  11:25----2440.0-310mCRNagpur 440003, Maharashtra
Scroll to Top
Scroll to Bottom